createdAt,value
2022-08-20T00:00:48.803Z,20.50
2022-08-20T00:03:23.586Z,17.73
2022-08-20T00:05:57.722Z,19.95
2022-08-20T00:08:26.116Z,16.20
2022-08-20T00:10:55.537Z,18.15
2022-08-20T00:13:27.226Z,18.05
2022-08-20T00:15:54.392Z,17.90
2022-08-20T00:18:22.289Z,17.35
2022-08-20T00:20:51.683Z,13.43
2022-08-20T00:23:19.683Z,22.17
2022-08-20T00:25:47.321Z,17.35
2022-08-20T00:28:14.666Z,15.60
2022-08-20T00:30:43.400Z,18.02
2022-08-20T00:33:13.817Z,24.40
2022-08-20T00:35:44.277Z,22.42
2022-08-20T00:38:11.193Z,15.27
2022-08-20T00:40:45.590Z,16.15
2022-08-20T00:43:35.818Z,19.55
2022-08-20T00:46:16.587Z,16.45
2022-08-20T00:48:46.315Z,20.95
2022-08-20T00:51:41.661Z,17.42
2022-08-20T00:54:08.314Z,18.37
2022-08-20T00:56:35.825Z,14.52
2022-08-20T00:59:04.566Z,12.30
2022-08-20T01:01:34.643Z,18.63
2022-08-20T01:04:21.353Z,21.02
2022-08-20T01:06:48.709Z,12.90
2022-08-20T01:09:15.769Z,19.25
2022-08-20T01:11:42.693Z,16.85
2022-08-20T01:14:30.658Z,21.25
2022-08-20T01:17:02.403Z,12.45
2022-08-20T01:19:35.322Z,18.58
2022-08-20T01:22:23.879Z,14.90
2022-08-20T01:24:55.152Z,19.25
2022-08-20T01:27:22.880Z,19.27
2022-08-20T01:29:52.242Z,14.27
2022-08-20T01:32:19.120Z,10.32
2022-08-20T01:34:46.073Z,17.35
2022-08-20T01:37:12.801Z,16.65
2022-08-20T01:39:39.566Z,15.77
2022-08-20T01:42:07.831Z,19.20
2022-08-20T01:44:37.712Z,15.77
2022-08-20T01:47:17.673Z,16.83
2022-08-20T01:49:51.538Z,16.58
2022-08-20T01:52:29.724Z,18.90
2022-08-20T01:54:57.134Z,17.02
2022-08-20T01:57:26.886Z,17.00
2022-08-20T01:59:54.574Z,16.10
2022-08-20T02:02:22.268Z,14.87
2022-08-20T02:04:49.096Z,15.32
2022-08-20T02:07:19.690Z,16.23
2022-08-20T02:09:47.618Z,17.23
2022-08-20T02:12:17.651Z,20.25
2022-08-20T02:14:48.469Z,16.70
2022-08-20T02:17:15.641Z,16.55
2022-08-20T02:19:47.542Z,14.48
2022-08-20T02:22:23.673Z,16.08
2022-08-20T02:24:51.524Z,14.70
2022-08-20T02:27:19.122Z,17.87
2022-08-20T02:29:46.919Z,15.48
2022-08-20T02:32:32.803Z,22.55
2022-08-20T02:35:03.431Z,14.13
2022-08-20T02:37:31.225Z,18.85
2022-08-20T02:39:58.109Z,18.95
2022-08-20T02:42:25.269Z,19.70
2022-08-20T02:44:54.215Z,16.98
2022-08-20T02:47:20.908Z,16.45
2022-08-20T02:49:47.624Z,21.55
2022-08-20T02:52:14.355Z,19.95
2022-08-20T02:54:41.387Z,22.52
2022-08-20T02:57:13.707Z,17.70
2022-08-20T02:59:40.636Z,18.17
2022-08-20T03:02:07.378Z,30.15
2022-08-20T03:04:34.136Z,20.67
2022-08-20T03:07:01.032Z,26.58
2022-08-20T03:09:27.936Z,20.12
2022-08-20T03:11:54.731Z,26.15
2022-08-20T03:14:21.476Z,19.02
2022-08-20T03:16:48.256Z,17.02
2022-08-20T03:19:15.032Z,17.52
2022-08-20T03:21:42.107Z,18.67
2022-08-20T03:24:09.327Z,14.87
2022-08-20T03:26:37.531Z,17.17
2022-08-20T03:29:04.687Z,15.70
2022-08-20T03:31:31.528Z,13.65
2022-08-20T03:33:58.338Z,18.15
2022-08-20T03:36:28.245Z,20.37
2022-08-20T03:39:01.454Z,18.33
2022-08-20T03:41:29.247Z,19.15
2022-08-20T03:43:56.700Z,18.05
2022-08-20T03:46:24.137Z,16.65
2022-08-20T03:49:00.388Z,16.23
2022-08-20T03:51:29.394Z,15.20
2022-08-20T03:53:56.233Z,14.10
2022-08-20T03:56:23.145Z,19.58
2022-08-20T03:58:49.906Z,18.70
2022-08-20T04:01:45.526Z,14.93
2022-08-20T04:04:03.905Z,17.37
2022-08-20T04:06:30.691Z,17.77
2022-08-20T04:08:58.560Z,14.90
2022-08-20T04:11:25.413Z,16.75
2022-08-20T04:13:52.641Z,16.48
2022-08-20T04:16:19.542Z,16.33
2022-08-20T04:19:01.372Z,22.42
2022-08-20T04:21:32.663Z,16.05
2022-08-20T04:24:01.293Z,11.60
2022-08-20T04:26:28.258Z,11.85
2022-08-20T04:28:55.834Z,14.95
2022-08-20T04:31:32.790Z,16.52
2022-08-20T04:34:04.083Z,14.23
2022-08-20T04:36:31.104Z,14.40
2022-08-20T04:38:57.972Z,18.77
2022-08-20T04:41:24.931Z,14.15
2022-08-20T04:43:54.425Z,15.98
2022-08-20T04:46:24.048Z,15.68
2022-08-20T04:48:50.916Z,12.25
2022-08-20T04:51:18.877Z,17.10
2022-08-20T04:53:51.970Z,16.17
2022-08-20T04:56:24.092Z,14.00
2022-08-20T04:58:53.443Z,21.25
2022-08-20T05:01:20.617Z,15.88
2022-08-20T05:03:48.059Z,14.48
2022-08-20T05:06:16.428Z,17.90
2022-08-20T05:08:44.050Z,13.75
2022-08-20T05:11:32.782Z,15.30
2022-08-20T05:13:58.388Z,11.57
2022-08-20T05:16:25.249Z,13.07
2022-08-20T05:18:52.890Z,15.18
2022-08-20T05:21:21.136Z,16.83
2022-08-20T05:23:49.554Z,15.10
2022-08-20T05:26:16.882Z,15.05
2022-08-20T05:28:57.737Z,14.68
2022-08-20T05:31:32.317Z,17.17
2022-08-20T05:34:12.235Z,17.50
2022-08-20T05:36:50.746Z,17.50
2022-08-20T05:39:22.441Z,16.62
2022-08-20T05:41:51.416Z,16.58
2022-08-20T05:44:19.173Z,14.30
2022-08-20T05:46:47.276Z,14.45
2022-08-20T05:49:19.123Z,15.88
2022-08-20T05:51:46.289Z,15.15
2022-08-20T05:54:14.211Z,11.10
2022-08-20T05:56:41.158Z,13.95
2022-08-20T05:59:09.975Z,15.07
2022-08-20T06:01:39.029Z,13.90
2022-08-20T06:04:28.083Z,11.43
2022-08-20T06:07:01.844Z,13.03
2022-08-20T06:09:32.198Z,12.82
2022-08-20T06:12:01.556Z,16.85
2022-08-20T06:14:28.641Z,15.15
2022-08-20T06:16:58.038Z,13.45
2022-08-20T06:19:27.214Z,11.45
2022-08-20T06:21:59.810Z,13.55
2022-08-20T06:24:27.172Z,15.13
2022-08-20T06:27:02.389Z,12.52
2022-08-20T06:29:30.218Z,11.05
2022-08-20T06:31:57.517Z,13.30
2022-08-20T06:34:28.378Z,16.67
2022-08-20T06:36:59.263Z,15.75
2022-08-20T06:39:30.258Z,14.05
2022-08-20T06:41:58.852Z,18.55
2022-08-20T06:44:26.167Z,19.70
2022-08-20T06:46:53.081Z,19.20
2022-08-20T06:49:19.906Z,17.17
2022-08-20T06:51:46.644Z,16.95
2022-08-20T06:54:18.758Z,14.90
2022-08-20T06:56:45.473Z,11.95
2022-08-20T06:59:12.248Z,15.02
2022-08-20T07:01:39.073Z,16.55
2022-08-20T07:04:07.679Z,14.07
2022-08-20T07:06:34.664Z,21.92
2022-08-20T07:09:01.443Z,15.18
2022-08-20T07:11:28.920Z,18.65
2022-08-20T07:13:58.529Z,17.95
2022-08-20T07:16:26.074Z,15.38
2022-08-20T07:18:52.906Z,17.33
2022-08-20T07:21:19.960Z,12.55
2022-08-20T07:23:49.050Z,15.32
2022-08-20T07:26:16.383Z,18.02
2022-08-20T07:28:43.203Z,16.00
2022-08-20T07:31:28.915Z,13.23
2022-08-20T07:33:58.512Z,12.00
2022-08-20T07:36:27.093Z,17.23
2022-08-20T07:38:54.932Z,19.48
2022-08-20T07:41:24.359Z,15.07
2022-08-20T07:43:51.453Z,18.98
2022-08-20T07:46:21.789Z,17.80
2022-08-20T07:48:50.663Z,16.48
2022-08-20T07:51:20.547Z,16.73
2022-08-20T07:53:48.637Z,12.93
2022-08-20T07:56:19.435Z,12.40
2022-08-20T07:58:52.531Z,8.30
2022-08-20T08:01:21.998Z,13.55
2022-08-20T08:06:29.136Z,19.75
2022-08-20T08:09:01.848Z,19.35
2022-08-20T08:11:28.798Z,8.68
2022-08-20T08:13:55.684Z,13.57
2022-08-20T08:16:22.605Z,14.55
2022-08-20T08:18:56.699Z,10.45
2022-08-20T08:21:24.115Z,15.32
2022-08-20T08:23:51.169Z,11.70
2022-08-20T08:26:21.922Z,11.52
2022-08-20T08:28:48.751Z,13.90
2022-08-20T08:31:16.062Z,10.40
2022-08-20T08:33:43.142Z,14.05
2022-08-20T08:36:15.412Z,10.68
2022-08-20T08:38:45.006Z,11.25
2022-08-20T08:41:29.703Z,10.68
2022-08-20T08:44:04.709Z,9.93
2022-08-20T08:46:35.855Z,9.00
2022-08-20T08:49:02.960Z,9.43
2022-08-20T08:51:42.197Z,12.52
2022-08-20T08:54:16.634Z,9.93
2022-08-20T08:56:43.668Z,8.82
2022-08-20T08:59:19.219Z,13.85
2022-08-20T09:01:55.541Z,17.23
2022-08-20T09:04:31.747Z,8.73
2022-08-20T09:07:00.275Z,10.60
2022-08-20T09:09:32.374Z,8.38
2022-08-20T09:12:06.426Z,10.18
2022-08-20T09:14:33.775Z,15.13
2022-08-20T09:17:00.594Z,10.30
2022-08-20T09:19:27.629Z,10.23
2022-08-20T09:21:54.608Z,12.88
2022-08-20T09:24:21.478Z,8.88
2022-08-20T09:26:48.283Z,15.02
2022-08-20T09:29:15.394Z,14.82
2022-08-20T09:31:42.212Z,13.18
2022-08-20T09:34:09.626Z,12.57
2022-08-20T09:36:36.351Z,13.38
2022-08-20T09:39:03.505Z,13.10
2022-08-20T09:41:33.596Z,12.68
2022-08-20T09:44:01.722Z,13.80
2022-08-20T09:46:28.624Z,12.57
2022-08-20T09:48:55.662Z,9.98
2022-08-20T09:51:23.180Z,11.85
2022-08-20T09:53:50.446Z,7.20
2022-08-20T09:56:18.340Z,11.02
2022-08-20T09:58:53.547Z,12.40
2022-08-20T10:01:22.407Z,8.68
2022-08-20T10:03:49.738Z,11.65
2022-08-20T10:06:19.988Z,11.15
2022-08-20T10:08:48.144Z,10.75
2022-08-20T10:11:15.126Z,11.20
2022-08-20T10:13:42.297Z,11.63
2022-08-20T10:16:09.113Z,9.05
2022-08-20T10:18:36.628Z,14.75
2022-08-20T10:21:08.750Z,10.65
2022-08-20T10:23:35.591Z,11.38
2022-08-20T10:26:02.377Z,10.68
2022-08-20T10:28:29.278Z,10.77
2022-08-20T10:30:56.117Z,10.30
2022-08-20T10:33:22.869Z,13.27
2022-08-20T10:35:50.899Z,11.45
2022-08-20T10:38:21.622Z,12.95
2022-08-20T10:40:52.415Z,15.18
2022-08-20T10:43:19.590Z,12.95
2022-08-20T10:45:46.573Z,13.25
2022-08-20T10:48:14.491Z,15.20
2022-08-20T10:50:43.897Z,11.32
2022-08-20T10:53:10.970Z,10.88
2022-08-20T10:55:37.711Z,10.60
2022-08-20T10:58:08.249Z,13.95
2022-08-20T11:00:38.460Z,10.25
2022-08-20T11:03:05.629Z,11.82
2022-08-20T11:05:32.699Z,14.10
2022-08-20T11:08:02.826Z,9.45
2022-08-20T11:10:33.446Z,8.15
2022-08-20T11:13:01.967Z,15.93
2022-08-20T11:15:29.044Z,12.97
2022-08-20T11:17:56.765Z,10.43
2022-08-20T11:20:26.441Z,13.40
2022-08-20T11:22:56.506Z,16.58
2022-08-20T11:25:23.901Z,10.20
2022-08-20T11:27:51.906Z,10.80
2022-08-20T11:30:25.390Z,12.10
2022-08-20T11:32:52.681Z,11.18
2022-08-20T11:40:36.143Z,10.50
2022-08-20T11:43:18.609Z,10.80
2022-08-20T11:45:48.766Z,11.52
2022-08-20T11:48:15.527Z,12.23
2022-08-20T11:50:42.389Z,8.55
2022-08-20T11:53:09.259Z,11.57
2022-08-20T11:55:37.359Z,15.10
2022-08-20T11:58:05.529Z,11.30
2022-08-20T12:00:34.234Z,11.18
2022-08-20T12:03:08.949Z,10.98
2022-08-20T12:05:41.075Z,10.32
2022-08-20T12:08:09.280Z,12.02
2022-08-20T12:10:38.110Z,8.60
2022-08-20T12:13:06.393Z,11.20
2022-08-20T12:15:35.073Z,13.73
2022-08-20T12:18:05.724Z,14.43
2022-08-20T12:20:32.670Z,11.88
2022-08-20T12:22:59.507Z,9.82
2022-08-20T12:25:26.928Z,15.90
2022-08-20T12:27:53.941Z,13.15
2022-08-20T12:30:23.615Z,10.65
2022-08-20T12:32:50.737Z,6.45
2022-08-20T12:35:19.285Z,8.88
2022-08-20T12:37:47.341Z,8.03
2022-08-20T12:40:24.524Z,9.00
2022-08-20T12:42:59.125Z,8.75
2022-08-20T12:45:25.982Z,7.80
2022-08-20T12:47:52.949Z,8.48
2022-08-20T12:50:23.614Z,6.35
2022-08-20T12:52:51.239Z,7.75
2022-08-20T12:55:19.866Z,7.62
2022-08-20T12:57:50.118Z,7.47
2022-08-20T13:00:39.466Z,6.57
2022-08-20T13:03:11.729Z,7.55
2022-08-20T13:05:39.463Z,11.73
2022-08-20T13:08:11.239Z,9.38
2022-08-20T13:10:47.334Z,10.32
2022-08-20T13:13:20.263Z,6.70
2022-08-20T13:15:49.436Z,9.23
2022-08-20T13:18:16.309Z,9.05
2022-08-20T13:20:43.156Z,7.62
2022-08-20T13:23:09.898Z,7.53
2022-08-20T13:25:36.790Z,6.75
2022-08-20T13:28:05.302Z,9.63
2022-08-20T13:30:34.909Z,7.20
2022-08-20T13:33:02.294Z,10.10
2022-08-20T13:35:29.984Z,6.10
2022-08-20T13:37:57.041Z,6.22
2022-08-20T13:40:23.943Z,7.85
2022-08-20T13:42:50.877Z,9.45
2022-08-20T13:45:18.297Z,6.15
2022-08-20T13:47:45.458Z,4.65
2022-08-20T13:50:18.019Z,5.43
2022-08-20T13:52:45.910Z,9.05
2022-08-20T13:55:16.213Z,6.22
2022-08-20T13:57:44.474Z,5.12
2022-08-20T14:00:15.751Z,3.92
2022-08-20T14:02:43.378Z,3.70
2022-08-20T14:05:11.424Z,3.90
2022-08-20T14:07:40.952Z,4.87
2022-08-20T14:10:12.925Z,3.67
2022-08-20T14:12:39.769Z,2.33
2022-08-20T14:15:09.159Z,4.22
2022-08-20T14:20:19.866Z,3.58
2022-08-20T14:22:46.783Z,2.80
2022-08-20T14:25:17.900Z,3.22
2022-08-20T14:27:45.229Z,5.53
2022-08-20T14:30:15.602Z,3.03
2022-08-20T14:32:42.414Z,3.40
2022-08-20T14:35:10.228Z,2.42
2022-08-20T14:37:46.507Z,3.53
2022-08-20T14:40:17.100Z,1.98
2022-08-20T14:42:47.675Z,1.30
2022-08-20T14:45:18.519Z,1.33
2022-08-20T14:47:53.414Z,1.67
2022-08-20T14:50:33.758Z,1.23
2022-08-20T14:53:01.548Z,4.18
2022-08-20T14:55:31.722Z,1.00
2022-08-20T14:57:58.656Z,0.80
2022-08-20T15:00:30.366Z,3.28
2022-08-20T15:02:57.376Z,1.50
2022-08-20T15:05:25.051Z,1.23
2022-08-20T15:07:53.823Z,2.20
2022-08-20T15:10:32.785Z,2.00
2022-08-20T15:13:00.528Z,0.95
2022-08-20T15:15:28.038Z,0.75
2022-08-20T15:17:58.102Z,2.47
2022-08-20T15:20:27.616Z,2.60
2022-08-20T15:22:55.081Z,2.50
2022-08-20T15:25:24.857Z,1.23
2022-08-20T15:28:01.591Z,3.70
2022-08-20T15:30:30.558Z,0.90
2022-08-20T15:32:57.645Z,2.43
2022-08-20T15:35:27.161Z,2.65
2022-08-20T15:37:57.918Z,0.80
2022-08-20T15:40:28.379Z,1.77
2022-08-20T15:42:57.194Z,0.70
2022-08-20T15:45:24.803Z,1.30
2022-08-20T15:48:08.913Z,1.55
2022-08-20T15:50:48.063Z,2.15
2022-08-20T15:53:28.977Z,0.88
2022-08-20T15:56:08.304Z,3.45
2022-08-20T15:59:20.329Z,1.27
2022-08-20T16:01:49.828Z,1.40
2022-08-20T16:04:34.513Z,1.87
2022-08-20T16:07:18.199Z,1.80
2022-08-20T16:10:22.854Z,1.87
2022-08-20T16:12:53.747Z,1.17
2022-08-20T16:15:34.565Z,2.85
2022-08-20T16:18:07.360Z,1.83
2022-08-20T16:20:41.943Z,2.80
2022-08-20T16:23:10.023Z,1.00
2022-08-20T16:26:07.582Z,2.97
2022-08-20T16:28:46.779Z,2.85
2022-08-20T16:31:19.227Z,2.28
2022-08-20T16:34:01.705Z,2.50
2022-08-20T16:36:39.109Z,2.12
2022-08-20T16:39:11.232Z,2.72
2022-08-20T16:41:44.128Z,2.25
2022-08-20T16:44:38.559Z,2.45
2022-08-20T16:47:29.463Z,2.40
2022-08-20T16:50:22.806Z,1.37
2022-08-20T16:52:51.805Z,2.97
2022-08-20T16:55:21.774Z,1.77
2022-08-20T16:57:49.700Z,2.12
2022-08-20T17:00:25.173Z,2.17
2022-08-20T17:03:00.064Z,1.65
2022-08-20T17:05:32.056Z,2.00
2022-08-20T17:08:04.281Z,3.37
2022-08-20T17:10:52.380Z,2.58
2022-08-20T17:13:28.031Z,3.37
2022-08-20T17:16:01.719Z,2.12
2022-08-20T17:18:36.823Z,3.65
2022-08-20T17:21:14.097Z,3.25
2022-08-20T17:23:56.101Z,3.15
2022-08-20T17:26:29.649Z,2.90
2022-08-20T17:29:00.040Z,2.28
2022-08-20T17:31:38.932Z,2.22
2022-08-20T17:34:13.138Z,2.40
2022-08-20T17:36:50.094Z,1.87
2022-08-20T17:39:19.323Z,2.62
2022-08-20T17:41:52.563Z,1.95
2022-08-20T17:44:26.106Z,1.37
2022-08-20T17:46:54.128Z,1.77
2022-08-20T17:49:35.095Z,3.45
2022-08-20T17:52:10.137Z,3.53
2022-08-20T17:54:41.611Z,0.93
2022-08-20T17:57:14.372Z,3.17
2022-08-20T18:00:02.383Z,5.07
2022-08-20T18:02:30.804Z,1.37
2022-08-20T18:04:57.690Z,3.05
2022-08-20T18:07:27.473Z,1.33
2022-08-20T18:10:00.484Z,3.35
2022-08-20T18:12:41.664Z,4.28
2022-08-20T18:15:13.735Z,2.85
2022-08-20T18:17:46.550Z,3.60
2022-08-20T18:20:37.568Z,2.75
2022-08-20T18:23:22.624Z,3.25
2022-08-20T18:25:55.009Z,3.50
2022-08-20T18:28:41.332Z,3.10
2022-08-20T18:31:10.511Z,2.30
2022-08-20T18:33:43.181Z,3.37
2022-08-20T18:36:24.804Z,3.47
2022-08-20T18:39:04.178Z,2.78
2022-08-20T18:41:40.567Z,5.05
2022-08-20T18:44:10.081Z,2.10
2022-08-20T18:49:08.766Z,2.97
2022-08-20T18:51:40.603Z,3.70
2022-08-20T18:54:07.944Z,3.55
2022-08-20T18:56:43.086Z,3.05
2022-08-20T18:59:15.773Z,2.85
2022-08-20T19:01:46.561Z,2.53
2022-08-20T19:04:28.450Z,3.25
2022-08-20T19:07:16.319Z,3.60
2022-08-20T19:09:52.368Z,2.15
2022-08-20T19:12:28.274Z,2.70
2022-08-20T19:15:17.799Z,2.45
2022-08-20T19:20:33.773Z,2.85
2022-08-20T19:23:07.775Z,2.50
2022-08-20T19:25:44.819Z,2.20
2022-08-20T19:28:21.966Z,2.67
2022-08-20T19:30:48.881Z,3.00
2022-08-20T19:33:26.704Z,3.15
2022-08-20T19:36:11.525Z,2.55
2022-08-20T19:38:50.066Z,2.72
2022-08-20T19:41:31.423Z,2.83
2022-08-20T19:44:00.304Z,3.12
2022-08-20T19:46:40.408Z,3.73
2022-08-20T19:49:29.344Z,2.53
2022-08-20T19:52:51.959Z,2.33
2022-08-20T19:55:24.035Z,2.72
2022-08-20T19:57:55.902Z,3.97
2022-08-20T20:00:24.931Z,3.35
2022-08-20T20:02:51.814Z,3.62
2022-08-20T20:05:19.097Z,2.55
2022-08-20T20:07:50.547Z,3.37
2022-08-20T20:10:31.768Z,2.50
2022-08-20T20:13:07.661Z,2.72
2022-08-20T20:15:34.807Z,2.72
2022-08-20T20:18:01.978Z,3.50
2022-08-20T20:20:32.476Z,2.40
2022-08-20T20:23:11.604Z,5.65
2022-08-20T20:25:43.421Z,3.10
2022-08-20T20:28:21.097Z,4.05
2022-08-20T20:30:48.908Z,2.20
2022-08-20T20:33:22.455Z,3.70
2022-08-20T20:36:07.493Z,3.72
2022-08-20T20:38:36.891Z,3.12
2022-08-20T20:41:06.777Z,2.58
2022-08-20T20:43:37.754Z,2.30
2022-08-20T20:46:20.533Z,2.85
2022-08-20T20:48:49.494Z,2.47
2022-08-20T20:51:38.652Z,2.33
2022-08-20T20:54:21.330Z,3.60
2022-08-20T20:56:58.912Z,4.90
2022-08-20T20:59:26.072Z,2.83
2022-08-20T21:01:52.837Z,2.85
2022-08-20T21:04:21.761Z,1.87
2022-08-20T21:06:49.406Z,2.50
2022-08-20T21:09:17.006Z,2.25
2022-08-20T21:11:43.911Z,2.35
2022-08-20T21:14:11.174Z,2.78
2022-08-20T21:16:37.889Z,3.25
2022-08-20T21:19:06.651Z,1.80
2022-08-20T21:21:34.067Z,2.50
2022-08-20T21:24:01.259Z,2.15
2022-08-20T21:26:28.891Z,4.15
2022-08-20T21:28:56.046Z,3.12
2022-08-20T21:31:29.906Z,2.70
2022-08-20T21:33:57.005Z,2.47
2022-08-20T21:36:24.028Z,2.83
2022-08-20T21:38:51.534Z,2.58
2022-08-20T21:41:18.547Z,1.95
2022-08-20T21:43:56.701Z,3.25
2022-08-20T21:46:24.847Z,1.98
2022-08-20T21:48:52.125Z,1.90
2022-08-20T21:51:19.496Z,2.08
2022-08-20T21:53:46.782Z,1.60
2022-08-20T21:56:13.469Z,2.15
2022-08-20T21:58:40.660Z,1.87
2022-08-20T22:01:08.331Z,1.48
2022-08-20T22:03:38.789Z,3.17
2022-08-20T22:06:08.649Z,0.80
2022-08-20T22:11:03.472Z,1.85
2022-08-20T22:13:32.910Z,1.12
2022-08-20T22:16:23.522Z,1.00
2022-08-20T22:18:51.859Z,1.62
2022-08-20T22:21:23.408Z,2.97
2022-08-20T22:23:50.637Z,7.68
2022-08-20T22:26:19.299Z,1.25
2022-08-20T22:28:50.908Z,1.42
2022-08-20T22:31:24.452Z,1.62
2022-08-20T22:33:51.364Z,2.45
2022-08-20T22:36:18.636Z,0.77
2022-08-20T22:38:47.308Z,1.12
2022-08-20T22:41:22.334Z,0.73
2022-08-20T22:43:55.867Z,1.25
2022-08-20T22:46:27.635Z,1.42
2022-08-20T22:48:55.943Z,2.15
2022-08-20T22:51:43.375Z,1.50
2022-08-20T22:54:12.587Z,1.20
2022-08-20T22:56:40.883Z,2.37
2022-08-20T22:59:07.953Z,0.73
2022-08-20T23:01:34.838Z,1.77
2022-08-20T23:04:12.424Z,1.37
2022-08-20T23:06:39.306Z,1.62
2022-08-20T23:09:06.077Z,1.12
2022-08-20T23:11:32.899Z,1.48
2022-08-20T23:13:59.911Z,1.50
2022-08-20T23:16:26.814Z,1.55
2022-08-20T23:18:53.943Z,2.67
2022-08-20T23:21:20.841Z,3.55
2022-08-20T23:23:47.791Z,1.77
2022-08-20T23:26:20.402Z,1.90
2022-08-20T23:28:47.633Z,2.45
2022-08-20T23:31:14.907Z,3.72
2022-08-20T23:33:44.957Z,1.62
2022-08-20T23:36:12.817Z,1.92
2022-08-20T23:38:39.830Z,1.23
2022-08-20T23:41:06.567Z,2.35
2022-08-20T23:43:33.440Z,1.90
2022-08-20T23:46:04.163Z,1.10
2022-08-20T23:48:31.803Z,1.48
2022-08-20T23:50:58.623Z,1.55
2022-08-20T23:53:25.707Z,1.67
2022-08-20T23:55:52.571Z,1.15
2022-08-20T23:58:19.551Z,2.17
